Terminal Aerodrome Forecast
Issued by NWS

Current Version | Previous Version | Text Only | Print | Product List | Glossary On
Versions: 1 2 3 4 5 6 7 8 9 10 11 12
000
FTUS45 KPSR 201735
TAFBLH
TAF
KBLH 201735Z 2018/2118 VRB06KT P6SM SCT250
     FM202000 24015G25KT P6SM FEW250
      TEMPO 2023/2101 24020G30KT 6SM BLDU
     FM210300 27012KT P6SM FEW250
     FM210600 33010KT P6SM FEW250=

USA.gov is the U.S. government's official web portal to all federal, state and local government web resources and services.